Time;durP1;ratioP1;P1;durP2;ratioP2;P2;SDS_P1;SDS_P2;PMS_P1;PMS_P2;Temp;Humidity;BMP_temperature;BMP_pressure;BME280_temperature;BME280_humidity;BME280_pressure;Samples;Min_cycle;Max_cycle;Signal;HPM_P1;HPM_P2
2022/07/25 00:00:11;;;;;;;0.47;0.47;;;21.20;92.90;;;;;;4445523;32;20068;-62
2022/07/25 00:02:37;;;;;;;0.30;0.30;;;21.20;92.50;;;;;;4445645;32;20057;-63
2022/07/25 00:05:03;;;;;;;0.20;0.20;;;21.20;93.00;;;;;;4444605;32;20069;-63
2022/07/25 00:07:28;;;;;;;0.28;0.28;;;21.20;93.20;;;;;;4446014;32;20061;-63
2022/07/25 00:09:54;;;;;;;0.20;0.20;;;21.00;93.20;;;;;;4445815;32;20068;-63
2022/07/25 00:12:20;;;;;;;0.80;0.50;;;21.00;92.70;;;;;;4443683;32;20076;-63
2022/07/25 00:14:47;;;;;;;4.53;0.77;;;21.00;92.70;;;;;;4444412;32;20508;-64
2022/07/25 00:17:12;;;;;;;0.30;0.30;;;21.00;93.10;;;;;;4438168;32;20165;-63
2022/07/25 00:19:38;;;;;;;0.40;0.40;;;21.00;92.70;;;;;;4430256;32;20069;-63
2022/07/25 00:22:03;;;;;;;0.22;0.22;;;21.00;92.90;;;;;;4412970;32;20061;-63
2022/07/25 00:24:29;;;;;;;0.20;0.20;;;20.90;93.20;;;;;;4411403;32;20081;-62
2022/07/25 00:26:54;;;;;;;0.30;0.30;;;20.90;92.20;;;;;;4429902;32;20525;-63
2022/07/25 00:29:20;;;;;;;0.20;0.20;;;21.00;92.40;;;;;;4430488;32;20081;-63
2022/07/25 00:31:46;;;;;;;1.77;0.77;;;21.00;93.00;;;;;;4427954;32;20077;-62
2022/07/25 00:34:11;;;;;;;0.22;0.22;;;20.90;93.20;;;;;;4428756;32;20073;-63
2022/07/25 00:36:37;;;;;;;0.20;0.20;;;20.80;93.30;;;;;;4433306;32;20061;-63
2022/07/25 00:39:03;;;;;;;0.25;0.25;;;20.80;93.40;;;;;;4444475;32;20065;-63
2022/07/25 00:41:28;;;;;;;0.30;0.30;;;20.70;93.70;;;;;;4445770;32;20098;-62
2022/07/25 00:43:54;;;;;;;0.30;0.30;;;20.60;93.50;;;;;;4444695;32;20077;-63
2022/07/25 00:46:19;;;;;;;0.30;0.30;;;20.60;93.60;;;;;;4444150;32;20061;-63
2022/07/25 00:48:45;;;;;;;0.25;0.25;;;20.70;93.60;;;;;;4444919;32;20430;-62
2022/07/25 00:51:10;;;;;;;0.30;0.30;;;20.80;93.20;;;;;;4436876;32;20073;-62
2022/07/25 00:53:37;;;;;;;0.32;0.32;;;20.70;93.80;;;;;;4421392;32;20094;-63
2022/07/25 00:56:04;;;;;;;1.15;0.50;;;20.70;93.60;;;;;;4440504;32;20076;-63
2022/07/25 00:58:29;;;;;;;0.20;0.20;;;20.60;92.80;;;;;;4444456;32;20069;-63
2022/07/25 01:00:55;;;;;;;0.20;0.20;;;20.70;92.80;;;;;;4444365;32;20500;-62
2022/07/25 01:03:21;;;;;;;0.30;0.30;;;20.80;92.00;;;;;;4445506;32;20064;-61
2022/07/25 01:05:46;;;;;;;0.20;0.20;;;20.80;93.10;;;;;;4444508;32;20065;-62
2022/07/25 01:08:12;;;;;;;0.30;0.30;;;20.90;90.80;;;;;;4445136;32;20068;-63
2022/07/25 01:10:38;;;;;;;4.07;0.50;;;21.00;90.50;;;;;;4428389;32;20069;-62
2022/07/25 01:13:04;;;;;;;0.20;0.20;;;21.10;90.50;;;;;;4428996;32;20061;-63
2022/07/25 01:15:30;;;;;;;0.40;0.40;;;21.10;90.30;;;;;;4428735;32;20057;-62
2022/07/25 01:17:55;;;;;;;0.30;0.30;;;21.10;90.10;;;;;;4429567;32;20073;-62
2022/07/25 01:20:24;;;;;;;0.25;0.25;;;21.10;90.20;;;;;;4428813;32;20512;-63
2022/07/25 01:22:51;;;;;;;0.20;0.20;;;21.10;90.20;;;;;;4408958;32;20089;-62
2022/07/25 01:25:18;;;;;;;0.40;0.40;;;21.10;90.30;;;;;;4403096;32;20074;-63
2022/07/25 01:27:45;;;;;;;0.28;0.28;;;21.10;90.20;;;;;;4429672;32;20113;-62
2022/07/25 01:30:12;;;;;;;0.30;0.30;;;21.00;90.60;;;;;;4415119;32;20559;-61
2022/07/25 01:32:38;;;;;;;0.65;0.35;;;21.00;90.40;;;;;;4425955;32;82002;-63
2022/07/25 01:35:06;;;;;;;0.20;0.20;;;20.90;90.60;;;;;;4427133;32;20064;-63
2022/07/25 01:37:31;;;;;;;0.25;0.25;;;20.90;90.50;;;;;;4438261;32;20100;-63
2022/07/25 01:39:57;;;;;;;0.40;0.40;;;20.90;90.80;;;;;;4443905;32;20061;-62
2022/07/25 01:42:23;;;;;;;0.62;0.45;;;20.80;90.80;;;;;;4431452;32;20053;-62
2022/07/25 01:44:48;;;;;;;0.30;0.30;;;20.80;90.90;;;;;;4443420;32;20097;-63
2022/07/25 01:47:16;;;;;;;0.30;0.30;;;20.70;90.90;;;;;;4431565;32;20162;-63
2022/07/25 01:49:41;;;;;;;0.20;0.20;;;20.70;91.00;;;;;;4429252;32;20081;-62
2022/07/25 01:52:07;;;;;;;0.20;0.20;;;20.80;91.30;;;;;;4413452;32;20074;-62
2022/07/25 01:54:32;;;;;;;0.30;0.30;;;20.80;91.10;;;;;;4419445;32;20174;-63
2022/07/25 01:56:58;;;;;;;0.32;0.30;;;20.80;91.20;;;;;;4444075;32;20081;-63
2022/07/25 01:59:23;;;;;;;0.30;0.30;;;20.70;91.20;;;;;;4444110;32;20115;-63
2022/07/25 02:01:49;;;;;;;0.47;0.47;;;20.70;91.40;;;;;;4443824;32;20077;-63
2022/07/25 02:04:14;;;;;;;0.30;0.30;;;20.70;91.10;;;;;;4443586;32;20124;-63
2022/07/25 02:06:40;;;;;;;0.20;0.20;;;20.70;91.10;;;;;;4428552;32;20077;-62
2022/07/25 02:09:06;;;;;;;0.20;0.20;;;20.60;91.40;;;;;;4428161;32;20061;-62
2022/07/25 02:11:32;;;;;;;0.20;0.20;;;20.60;91.50;;;;;;4428228;32;20443;-61
2022/07/25 02:13:58;;;;;;;0.32;0.32;;;20.50;91.80;;;;;;4429641;32;20066;-61
2022/07/25 02:16:23;;;;;;;1.02;0.57;;;20.40;92.40;;;;;;4428355;32;20077;-61
2022/07/25 02:18:49;;;;;;;0.30;0.30;;;20.40;92.50;;;;;;4429118;32;20069;-62
2022/07/25 02:21:14;;;;;;;0.20;0.20;;;20.40;92.20;;;;;;4436507;32;20077;-61
2022/07/25 02:23:40;;;;;;;1.17;0.65;;;20.30;92.30;;;;;;4422136;32;20098;-62
2022/07/25 02:26:06;;;;;;;0.40;0.40;;;20.30;92.50;;;;;;4438812;32;20123;-62
2022/07/25 02:28:32;;;;;;;0.40;0.40;;;20.30;92.30;;;;;;4443758;32;20068;-62
2022/07/25 02:30:57;;;;;;;0.20;0.20;;;20.40;92.10;;;;;;4444458;32;20069;-62
2022/07/25 02:33:22;;;;;;;0.30;0.30;;;20.30;92.40;;;;;;4444409;32;20119;-62
2022/07/25 02:35:49;;;;;;;0.40;0.40;;;20.20;92.70;;;;;;4429181;32;20438;-62
2022/07/25 02:38:18;;;;;;;0.25;0.25;;;20.20;92.60;;;;;;4431272;32;20080;-62
2022/07/25 02:40:46;;;;;;;1.17;0.50;;;20.00;92.90;;;;;;4430466;32;20462;-62
2022/07/25 02:43:11;;;;;;;0.30;0.30;;;20.00;93.00;;;;;;4443719;32;20423;-62
2022/07/25 02:45:37;;;;;;;0.43;0.40;;;20.00;93.10;;;;;;4445706;32;20119;-62
2022/07/25 02:48:03;;;;;;;0.20;0.20;;;20.10;92.70;;;;;;4431667;32;20064;-62
2022/07/25 02:50:29;;;;;;;0.30;0.30;;;20.10;93.20;;;;;;4430458;32;20065;-62
2022/07/25 02:52:54;;;;;;;0.20;0.20;;;20.00;92.90;;;;;;4408111;32;20089;-62
2022/07/25 02:55:20;;;;;;;0.30;0.30;;;20.00;93.00;;;;;;4421316;32;20062;-62
2022/07/25 02:57:45;;;;;;;0.30;0.30;;;20.00;93.70;;;;;;4430495;32;20077;-62
2022/07/25 03:00:12;;;;;;;0.30;0.30;;;19.90;93.70;;;;;;4441037;32;20078;-62
2022/07/25 03:02:38;;;;;;;0.50;0.50;;;19.80;93.60;;;;;;4444735;32;20124;-62
2022/07/25 03:05:07;;;;;;;0.50;0.50;;;19.80;93.30;;;;;;4446560;32;20064;-62
2022/07/25 03:07:32;;;;;;;0.40;0.40;;;19.70;93.50;;;;;;4444330;32;20065;-62
2022/07/25 03:09:58;;;;;;;0.40;0.40;;;19.80;93.50;;;;;;4445467;32;20069;-62
2022/07/25 03:12:23;;;;;;;0.35;0.35;;;19.80;93.60;;;;;;4445709;32;20411;-62
2022/07/25 03:14:49;;;;;;;0.47;0.47;;;19.90;93.20;;;;;;4432865;32;20073;-62
2022/07/25 03:17:14;;;;;;;0.20;0.20;;;19.80;93.10;;;;;;4431063;32;20069;-62
2022/07/25 03:19:40;;;;;;;0.20;0.20;;;19.80;92.90;;;;;;4429953;32;20064;-62
2022/07/25 03:22:06;;;;;;;0.30;0.30;;;19.80;93.20;;;;;;4413202;32;20077;-62
2022/07/25 03:24:31;;;;;;;0.30;0.30;;;19.80;93.60;;;;;;4417883;32;20302;-62
2022/07/25 03:26:56;;;;;;;0.30;0.30;;;19.80;93.00;;;;;;4446154;32;20535;-61
2022/07/25 03:29:22;;;;;;;0.32;0.32;;;19.80;93.10;;;;;;4446376;32;20084;-62
2022/07/25 03:31:47;;;;;;;0.30;0.30;;;19.70;93.10;;;;;;4446097;32;20069;-61
2022/07/25 03:34:13;;;;;;;0.22;0.22;;;19.80;92.90;;;;;;4446199;32;20077;-62
2022/07/25 03:36:38;;;;;;;0.25;0.25;;;19.80;93.00;;;;;;4445418;32;20430;-62
2022/07/25 03:39:04;;;;;;;0.25;0.25;;;19.80;92.80;;;;;;4446052;32;20223;-60
2022/07/25 03:41:29;;;;;;;0.40;0.40;;;19.80;92.90;;;;;;4446902;32;20066;-62
2022/07/25 03:43:55;;;;;;;0.30;0.30;;;19.70;93.10;;;;;;4446249;32;20065;-62
2022/07/25 03:46:20;;;;;;;1.20;0.70;;;19.70;92.80;;;;;;4444912;32;20413;-62
2022/07/25 03:48:45;;;;;;;1.42;0.60;;;19.70;92.80;;;;;;4445049;32;20078;-62
2022/07/25 03:51:11;;;;;;;0.30;0.30;;;19.80;92.40;;;;;;4438775;32;20061;-62
2022/07/25 03:54:00;;;;;;;0.35;0.35;;;19.80;92.40;;;;;;4424052;32;20391;-61
2022/07/25 03:56:22;;;;;;;8.48;1.42;;;19.80;92.50;;;;;;4441262;32;20124;-61
2022/07/25 03:58:48;;;;;;;0.30;0.30;;;19.80;92.50;;;;;;4443252;32;20078;-62
2022/07/25 04:01:13;;;;;;;0.30;0.30;;;19.80;92.50;;;;;;4446055;32;20065;-62
2022/07/25 04:03:39;;;;;;;0.30;0.30;;;19.80;92.30;;;;;;4445376;32;20057;-62
2022/07/25 04:06:04;;;;;;;0.37;0.37;;;19.80;92.20;;;;;;4445584;32;20519;-62
2022/07/25 04:08:30;;;;;;;0.22;0.22;;;19.80;92.20;;;;;;4444766;32;20160;-62
2022/07/25 04:10:55;;;;;;;0.30;0.30;;;19.80;92.30;;;;;;4440187;32;20415;-62
2022/07/25 04:13:21;;;;;;;0.50;0.50;;;19.80;92.70;;;;;;4429140;32;20065;-62
2022/07/25 04:15:46;;;;;;;5.22;0.60;;;19.80;92.90;;;;;;4430529;32;20068;-62
2022/07/25 04:18:12;;;;;;;0.30;0.30;;;19.80;92.60;;;;;;4430954;32;20062;-62
2022/07/25 04:20:37;;;;;;;0.22;0.22;;;19.90;92.70;;;;;;4440525;32;20131;-62
2022/07/25 04:23:03;;;;;;;0.43;0.43;;;19.80;92.90;;;;;;4422804;32;20072;-62
2022/07/25 04:25:29;;;;;;;0.30;0.30;;;19.90;92.40;;;;;;4433486;32;20077;-62
2022/07/25 04:27:55;;;;;;;0.30;0.30;;;19.90;92.40;;;;;;4445594;32;20065;-62
2022/07/25 04:30:20;;;;;;;0.30;0.30;;;20.00;92.50;;;;;;4445349;32;20072;-62
2022/07/25 04:32:46;;;;;;;1.10;0.60;;;20.00;92.80;;;;;;4444718;32;20168;-61
2022/07/25 04:35:11;;;;;;;0.50;0.50;;;20.10;92.00;;;;;;4443051;32;20072;-62
2022/07/25 04:37:37;;;;;;;0.20;0.20;;;20.10;92.00;;;;;;4443410;32;20065;-62
2022/07/25 04:40:04;;;;;;;0.30;0.30;;;20.20;92.40;;;;;;4438663;32;20123;-62
2022/07/25 04:42:29;;;;;;;0.22;0.22;;;20.20;92.00;;;;;;4440278;32;20081;-62
2022/07/25 04:44:55;;;;;;;0.20;0.20;;;20.20;91.90;;;;;;4443415;32;20084;-61
2022/07/25 04:47:20;;;;;;;0.30;0.30;;;20.30;92.50;;;;;;4444724;32;20061;-61
2022/07/25 04:49:46;;;;;;;0.28;0.28;;;20.30;92.60;;;;;;4442523;32;20447;-62
2022/07/25 04:52:11;;;;;;;0.77;0.30;;;20.30;92.60;;;;;;4426395;32;20073;-62
2022/07/25 04:54:37;;;;;;;0.20;0.20;;;20.30;92.20;;;;;;4422941;32;20586;-62
2022/07/25 04:57:04;;;;;;;0.35;0.35;;;20.50;92.10;;;;;;4443487;32;20069;-63
2022/07/25 04:59:30;;;;;;;0.40;0.40;;;20.60;91.70;;;;;;4443542;32;20089;-62
2022/07/25 05:01:55;;;;;;;0.20;0.20;;;20.70;91.70;;;;;;4439893;32;20830;-62
2022/07/25 05:04:21;;;;;;;0.37;0.37;;;20.80;91.80;;;;;;4435284;32;20431;-63
2022/07/25 05:06:46;;;;;;;0.30;0.30;;;20.90;91.60;;;;;;4434605;32;20089;-63
2022/07/25 05:09:12;;;;;;;0.22;0.22;;;20.80;91.30;;;;;;4435552;32;20581;-63
2022/07/25 05:11:37;;;;;;;0.50;0.50;;;20.90;91.80;;;;;;4431844;32;20064;-62
2022/07/25 05:14:03;;;;;;;0.30;0.30;;;21.00;91.70;;;;;;4434455;32;20571;-62
2022/07/25 05:16:28;;;;;;;0.20;0.20;;;20.90;91.30;;;;;;4427715;32;20082;-62
2022/07/25 05:18:54;;;;;;;0.93;0.77;;;21.00;91.10;;;;;;4431662;32;20065;-63
2022/07/25 05:21:19;;;;;;;0.20;0.20;;;21.00;91.50;;;;;;4428617;32;20053;-62
2022/07/25 05:23:45;;;;;;;0.30;0.30;;;21.10;91.00;;;;;;4416676;32;20069;-62
2022/07/25 05:26:10;;;;;;;0.30;0.30;;;21.20;91.10;;;;;;4439753;32;20508;-62
2022/07/25 05:28:36;;;;;;;0.52;0.40;;;21.30;90.90;;;;;;4438445;32;20069;-62
2022/07/25 05:31:02;;;;;;;0.62;0.60;;;21.30;90.70;;;;;;4425775;32;20115;-62
2022/07/25 05:33:27;;;;;;;3.45;0.68;;;21.40;90.90;;;;;;4418888;32;20077;-62
2022/07/25 05:35:53;;;;;;;0.30;0.30;;;21.40;90.70;;;;;;4426686;32;20062;-62
2022/07/25 05:38:18;;;;;;;0.62;0.62;;;21.40;90.80;;;;;;4429002;32;20060;-63
2022/07/25 05:40:44;;;;;;;1.35;0.88;;;21.40;90.70;;;;;;4431275;32;20143;-62
2022/07/25 05:43:10;;;;;;;0.40;0.40;;;21.60;90.60;;;;;;4437883;32;20576;-62
2022/07/25 05:45:35;;;;;;;0.32;0.32;;;21.60;90.70;;;;;;4436258;32;20069;-62
2022/07/25 05:48:01;;;;;;;0.32;0.32;;;21.70;91.00;;;;;;4445044;32;20080;-63
2022/07/25 05:50:26;;;;;;;0.47;0.47;;;21.80;90.70;;;;;;4443278;32;20477;-62
2022/07/25 05:52:52;;;;;;;0.30;0.30;;;21.80;90.60;;;;;;4423288;32;20081;-62
2022/07/25 05:55:18;;;;;;;0.30;0.30;;;21.90;90.70;;;;;;4431673;32;20579;-62
2022/07/25 05:57:43;;;;;;;1.15;0.43;;;22.00;90.70;;;;;;4444322;32;20069;-62
2022/07/25 06:00:09;;;;;;;0.65;0.35;;;22.00;90.70;;;;;;4443637;32;20069;-62
2022/07/25 06:02:35;;;;;;;0.20;0.20;;;22.00;90.90;;;;;;4434291;32;20086;-62
2022/07/25 06:05:00;;;;;;;0.40;0.40;;;21.90;91.00;;;;;;4436663;32;20065;-62
2022/07/25 06:07:25;;;;;;;0.35;0.35;;;22.00;91.30;;;;;;4430546;32;20120;-62
2022/07/25 06:09:51;;;;;;;0.45;0.45;;;22.10;90.90;;;;;;4430235;32;20116;-63
2022/07/25 06:12:16;;;;;;;1.00;0.50;;;22.10;91.10;;;;;;4428871;32;20127;-62
2022/07/25 06:14:42;;;;;;;0.40;0.40;;;22.10;91.20;;;;;;4422309;32;20160;-62
2022/07/25 06:17:07;;;;;;;3.30;0.68;;;22.20;91.20;;;;;;4434482;32;20097;-62
2022/07/25 06:19:33;;;;;;;2.62;0.77;;;22.30;91.10;;;;;;4446592;32;20064;-62
2022/07/25 06:21:58;;;;;;;0.80;0.40;;;22.30;91.20;;;;;;4431000;32;20065;-62
2022/07/25 06:24:24;;;;;;;0.80;0.62;;;22.40;91.10;;;;;;4428799;32;20111;-63
2022/07/25 06:26:49;;;;;;;0.37;0.37;;;22.50;91.00;;;;;;4447275;32;20327;-62
2022/07/25 06:29:15;;;;;;;1.75;0.32;;;22.70;91.00;;;;;;4446859;32;20057;-62
2022/07/25 06:31:40;;;;;;;0.60;0.60;;;22.80;91.20;;;;;;4440136;32;20085;-62
2022/07/25 06:34:05;;;;;;;0.20;0.20;;;23.00;90.70;;;;;;4435760;32;20132;-63
2022/07/25 06:36:31;;;;;;;6.03;1.60;;;23.00;90.30;;;;;;4442733;32;20477;-62
2022/07/25 06:38:56;;;;;;;0.37;0.37;;;23.10;90.40;;;;;;4431596;32;20069;-62
2022/07/25 06:41:22;;;;;;;0.40;0.40;;;23.20;90.20;;;;;;4430660;32;20112;-63
2022/07/25 06:43:47;;;;;;;0.20;0.20;;;23.30;90.20;;;;;;4421349;32;20058;-62
2022/07/25 06:46:13;;;;;;;0.47;0.47;;;23.30;90.20;;;;;;4434615;32;20119;-63
2022/07/25 06:48:38;;;;;;;0.40;0.40;;;23.40;90.40;;;;;;4446364;32;20065;-62
2022/07/25 06:51:05;;;;;;;0.35;0.35;;;23.50;90.20;;;;;;4440315;32;20061;-62
2022/07/25 06:53:30;;;;;;;0.22;0.22;;;23.60;90.50;;;;;;4423472;32;20061;-63
2022/07/25 06:55:56;;;;;;;0.20;0.20;;;23.70;90.20;;;;;;4440634;32;20413;-62
2022/07/25 06:58:21;;;;;;;1.90;0.73;;;23.80;89.70;;;;;;4446811;32;20066;-63
2022/07/25 07:00:47;;;;;;;0.20;0.20;;;23.90;90.00;;;;;;4443483;32;20595;-61
2022/07/25 07:03:12;;;;;;;0.32;0.32;;;24.00;90.00;;;;;;4436656;32;20071;-62
2022/07/25 07:05:39;;;;;;;1.27;0.55;;;24.10;89.90;;;;;;4441621;32;20077;-62
2022/07/25 07:08:04;;;;;;;0.47;0.45;;;24.20;88.90;;;;;;4436771;32;20459;-62
2022/07/25 07:10:30;;;;;;;0.28;0.28;;;24.30;89.40;;;;;;4430121;32;20069;-63
2022/07/25 07:13:08;;;;;;;0.20;0.20;;;24.30;89.30;;;;;;4423811;32;20086;-63
2022/07/25 07:15:36;;;;;;;3.40;0.57;;;24.40;89.00;;;;;;4420417;32;20069;-62
2022/07/25 07:18:02;;;;;;;0.40;0.40;;;24.50;89.50;;;;;;4434466;32;20061;-62
2022/07/25 07:20:28;;;;;;;0.40;0.40;;;24.50;89.00;;;;;;4445240;32;20164;-62
2022/07/25 07:22:54;;;;;;;0.47;0.47;;;24.70;89.10;;;;;;4423229;32;20100;-62
2022/07/25 07:25:20;;;;;;;0.35;0.32;;;24.80;89.30;;;;;;4434368;32;20069;-62
2022/07/25 07:27:46;;;;;;;0.37;0.30;;;24.90;88.60;;;;;;4446051;32;20310;-62
2022/07/25 07:30:13;;;;;;;0.60;0.30;;;24.90;88.20;;;;;;4444127;32;20069;-62
2022/07/25 07:32:40;;;;;;;0.28;0.28;;;25.10;88.10;;;;;;4434110;32;20129;-62
2022/07/25 07:35:06;;;;;;;5.95;1.37;;;25.20;88.10;;;;;;4438524;32;20065;-62
2022/07/25 07:37:31;;;;;;;0.37;0.32;;;25.40;87.60;;;;;;4443807;32;20099;-62
2022/07/25 07:39:57;;;;;;;2.47;0.95;;;25.50;87.30;;;;;;4445572;32;20060;-62
2022/07/25 07:42:22;;;;;;;0.68;0.50;;;25.50;87.70;;;;;;4442619;32;20057;-62
2022/07/25 07:44:48;;;;;;;2.37;1.00;;;25.70;87.10;;;;;;4421301;32;20584;-62
2022/07/25 07:47:13;;;;;;;0.20;0.20;;;25.80;87.50;;;;;;4425892;32;20060;-63
2022/07/25 07:49:39;;;;;;;0.85;0.65;;;25.90;87.40;;;;;;4430647;32;20112;-62
2022/07/25 07:52:04;;;;;;;0.30;0.30;;;25.90;86.80;;;;;;4414407;32;20086;-62
2022/07/25 07:55:48;;;;;;;1.85;0.68;;;26.10;86.60;;;;;;4416039;32;20120;-62
2022/07/25 07:57:16;;;;;;;0.52;0.47;;;26.20;86.20;;;;;;4433933;32;20084;-62
2022/07/25 07:59:41;;;;;;;0.28;0.28;;;26.30;85.80;;;;;;4445711;32;20068;-62
2022/07/25 08:02:06;;;;;;;0.40;0.40;;;26.40;86.20;;;;;;4435170;32;20431;-62
2022/07/25 08:04:32;;;;;;;0.22;0.22;;;26.60;85.90;;;;;;4436551;32;20080;-63
2022/07/25 08:06:57;;;;;;;0.40;0.40;;;26.70;85.80;;;;;;4445411;32;20068;-63
2022/07/25 08:09:24;;;;;;;0.45;0.45;;;26.90;85.50;;;;;;4433091;32;20411;-62
2022/07/25 08:11:51;;;;;;;0.20;0.20;;;27.00;84.80;;;;;;4443926;32;20090;-63
2022/07/25 08:14:16;;;;;;;0.60;0.60;;;27.10;84.50;;;;;;4433332;32;20135;-63
2022/07/25 08:16:41;;;;;;;1.52;0.50;;;27.20;85.10;;;;;;4438787;32;20084;-63
2022/07/25 08:19:07;;;;;;;0.43;0.35;;;27.30;84.40;;;;;;4444660;32;20081;-63
2022/07/25 08:21:32;;;;;;;0.22;0.22;;;27.40;83.90;;;;;;4434984;32;20090;-62
2022/07/25 08:23:58;;;;;;;0.50;0.50;;;27.40;84.30;;;;;;4414995;32;20505;-62
2022/07/25 08:26:26;;;;;;;0.30;0.30;;;27.60;83.80;;;;;;4427947;32;20057;-63
2022/07/25 08:28:52;;;;;;;0.20;0.20;;;27.60;83.60;;;;;;4429377;32;20473;-63
2022/07/25 08:31:18;;;;;;;0.60;0.40;;;27.60;83.50;;;;;;4422824;32;20065;-63
2022/07/25 08:33:43;;;;;;;0.20;0.20;;;27.80;83.70;;;;;;4417169;32;20114;-62
2022/07/25 08:36:10;;;;;;;0.35;0.35;;;27.90;83.30;;;;;;4428519;32;20077;-62
2022/07/25 08:38:35;;;;;;;0.47;0.40;;;28.00;83.00;;;;;;4443849;32;20476;-63
2022/07/25 08:41:02;;;;;;;1.75;0.60;;;28.00;83.20;;;;;;4445893;32;20107;-63
2022/07/25 08:43:31;;;;;;;0.30;0.30;;;28.10;82.70;;;;;;4436795;32;20073;-63
2022/07/25 08:45:59;;;;;;;0.62;0.40;;;28.20;82.90;;;;;;4434709;32;20541;-63
2022/07/25 08:48:25;;;;;;;0.17;0.17;;;28.40;83.10;;;;;;4445473;32;20080;-63
2022/07/25 08:50:53;;;;;;;1.50;0.70;;;28.50;82.90;;;;;;4439933;32;20493;-63
2022/07/25 08:53:20;;;;;;;0.40;0.40;;;28.60;81.90;;;;;;4422192;32;20134;-63
2022/07/25 08:55:46;;;;;;;0.25;0.25;;;28.80;82.20;;;;;;4431156;32;20124;-63
2022/07/25 08:58:14;;;;;;;0.70;0.43;;;28.90;81.60;;;;;;4416785;32;20065;-61
2022/07/25 09:00:40;;;;;;;0.30;0.30;;;29.00;81.00;;;;;;4424003;32;20061;-62
2022/07/25 09:03:05;;;;;;;0.10;0.10;;;29.00;81.10;;;;;;4417692;32;20061;-62
2022/07/25 09:05:32;;;;;;;1.65;0.82;;;29.10;81.90;;;;;;4423988;32;20073;-62
2022/07/25 09:08:07;;;;;;;5.37;2.28;;;29.20;81.30;;;;;;4441683;32;20123;-62
2022/07/25 09:10:32;;;;;;;0.45;0.45;;;29.30;80.80;;;;;;4430914;32;20065;-62
2022/07/25 09:13:00;;;;;;;0.88;0.43;;;29.40;80.70;;;;;;4437985;32;20089;-62
2022/07/25 09:15:33;;;;;;;0.55;0.45;;;29.50;80.90;;;;;;4430499;32;20465;-62
2022/07/25 09:18:00;;;;;;;0.37;0.20;;;29.60;80.60;;;;;;4444270;32;20073;-62
2022/07/25 09:20:46;;;;;;;0.20;0.20;;;29.60;79.90;;;;;;4430429;32;20065;-63
2022/07/25 09:23:14;;;;;;;0.30;0.30;;;29.70;80.40;;;;;;4423232;32;20060;-63
2022/07/25 09:25:41;;;;;;;1.45;0.62;;;29.90;80.00;;;;;;4438244;32;20065;-63
2022/07/25 09:28:16;;;;;;;0.85;0.28;;;30.10;80.00;;;;;;4445173;32;20061;-63
2022/07/25 09:30:58;;;;;;;0.82;0.60;;;30.10;78.60;;;;;;4440935;32;20061;-63
2022/07/25 09:33:25;;;;;;;0.40;0.40;;;30.20;78.50;;;;;;4418730;32;20076;-63
2022/07/25 09:35:52;;;;;;;0.28;0.22;;;30.30;78.80;;;;;;4429738;32;20150;-63
2022/07/25 09:38:19;;;;;;;0.70;0.40;;;30.30;78.80;;;;;;4433980;32;20143;-62
2022/07/25 09:40:57;;;;;;;0.20;0.10;;;30.50;77.30;;;;;;4443800;32;20073;-63
2022/07/25 09:43:35;;;;;;;0.30;0.30;;;30.60;76.80;;;;;;4422235;32;20081;-63
2022/07/25 09:46:01;;;;;;;0.35;0.25;;;30.70;76.40;;;;;;4434133;32;20069;-63
2022/07/25 09:48:26;;;;;;;0.22;0.22;;;30.90;76.50;;;;;;4445144;32;20450;-63
2022/07/25 09:50:53;;;;;;;1.98;0.60;;;31.00;76.30;;;;;;4425949;32;21050;-63
2022/07/25 09:53:19;;;;;;;0.65;0.65;;;31.10;76.80;;;;;;4406123;32;20077;-63
2022/07/25 09:55:45;;;;;;;1.10;0.93;;;31.20;75.60;;;;;;4410803;32;20124;-63
2022/07/25 09:58:12;;;;;;;1.98;1.05;;;31.30;74.80;;;;;;4445845;32;20069;-63
2022/07/25 10:00:39;;;;;;;0.20;0.20;;;31.40;74.60;;;;;;4432964;32;20654;-63
2022/07/25 10:03:31;;;;;;;0.35;0.35;;;31.50;74.30;;;;;;4430802;32;20069;-63
2022/07/25 10:06:10;;;;;;;0.32;0.32;;;31.70;74.30;;;;;;4439946;32;20074;-63
2022/07/25 10:08:37;;;;;;;0.30;0.30;;;31.70;73.50;;;;;;4443442;32;20390;-62
2022/07/25 10:11:05;;;;;;;0.52;0.43;;;32.00;74.20;;;;;;4443743;32;20080;-63
2022/07/25 10:13:34;;;;;;;0.55;0.50;;;32.10;72.60;;;;;;4434378;32;20072;-63
2022/07/25 10:16:00;;;;;;;0.30;0.30;;;32.30;71.60;;;;;;4420184;32;20085;-63
2022/07/25 10:18:27;;;;;;;12.18;0.50;;;32.30;71.70;;;;;;4442671;32;20085;-63
2022/07/25 10:21:06;;;;;;;4.62;1.35;;;32.40;72.00;;;;;;4426015;32;20609;-63
2022/07/25 10:23:31;;;;;;;0.60;0.60;;;32.60;71.90;;;;;;4384464;32;20080;-63
2022/07/25 10:26:03;;;;;;;0.73;0.60;;;32.80;71.30;;;;;;4423536;32;20081;-63
2022/07/25 10:28:46;;;;;;;0.55;0.55;;;32.80;70.50;;;;;;4430127;32;20081;-63
2022/07/25 10:31:22;;;;;;;0.30;0.30;;;33.00;70.40;;;;;;4411569;32;20072;-64
2022/07/25 10:33:52;;;;;;;0.40;0.40;;;33.30;68.60;;;;;;4418259;32;20061;-63
2022/07/25 10:36:18;;;;;;;0.90;0.57;;;33.50;68.50;;;;;;4441536;32;20069;-64
2022/07/25 10:38:45;;;;;;;3.85;0.95;;;33.50;68.30;;;;;;4444617;32;20061;-63
2022/07/25 10:41:14;;;;;;;0.57;0.57;;;33.30;69.00;;;;;;4442135;32;20065;-65
2022/07/25 10:43:42;;;;;;;0.68;0.40;;;33.30;68.80;;;;;;4417907;32;20053;-64
2022/07/25 10:46:26;;;;;;;0.30;0.30;;;33.50;69.40;;;;;;4434585;32;20065;-63
2022/07/25 10:49:02;;;;;;;0.65;0.65;;;33.40;68.80;;;;;;4417597;32;20086;-64
2022/07/25 10:51:32;;;;;;;0.70;0.47;;;33.70;68.80;;;;;;4420668;32;20069;-64
2022/07/25 10:53:57;;;;;;;3.05;1.02;;;33.80;67.10;;;;;;4409642;32;20090;-64
2022/07/25 10:56:26;;;;;;;0.10;0.10;;;33.40;67.10;;;;;;4426543;32;20492;-64
2022/07/25 10:58:57;;;;;;;2.45;0.55;;;33.20;67.40;;;;;;4445582;32;20061;-64
2022/07/25 11:01:29;;;;;;;0.47;0.47;;;33.30;67.30;;;;;;4412532;32;20139;-63
2022/07/25 11:03:58;;;;;;;0.30;0.30;;;33.50;67.20;;;;;;4407194;32;20480;-63
2022/07/25 11:06:34;;;;;;;0.13;0.13;;;33.80;65.80;;;;;;4444543;32;20061;-64
2022/07/25 11:09:00;;;;;;;0.30;0.22;;;33.90;65.40;;;;;;4432070;32;20494;-64
2022/07/25 11:11:37;;;;;;;0.30;0.30;;;34.30;65.00;;;;;;4432623;32;20061;-64
2022/07/25 11:14:04;;;;;;;0.32;0.32;;;34.30;65.20;;;;;;4433158;32;20438;-64
2022/07/25 11:16:30;;;;;;;1.65;0.95;;;34.40;64.00;;;;;;4424369;32;20077;-64
2022/07/25 11:18:56;;;;;;;0.30;0.30;;;34.60;62.90;;;;;;4422051;32;20419;-64
2022/07/25 11:21:21;;;;;;;0.55;0.47;;;34.90;62.40;;;;;;4408811;32;20074;-63
2022/07/25 11:23:54;;;;;;;0.10;0.10;;;35.20;61.50;;;;;;4409524;32;20128;-64
2022/07/25 11:26:19;;;;;;;0.47;0.47;;;35.50;60.20;;;;;;4427680;32;20092;-64
2022/07/25 11:28:47;;;;;;;0.50;0.30;;;35.40;60.00;;;;;;4438724;32;20073;-64
2022/07/25 11:31:14;;;;;;;0.35;0.35;;;35.10;60.80;;;;;;4425199;32;20120;-64
2022/07/25 11:33:42;;;;;;;0.30;0.30;;;35.00;62.10;;;;;;4418834;32;20084;-64
2022/07/25 11:36:09;;;;;;;1.27;0.90;;;35.20;61.40;;;;;;4443943;32;20076;-64
2022/07/25 11:38:36;;;;;;;4.85;1.27;;;35.40;59.60;;;;;;4432049;32;20521;-64
2022/07/25 11:41:02;;;;;;;0.22;0.22;;;35.60;58.50;;;;;;4458357;32;20080;-64
2022/07/25 11:43:28;;;;;;;0.40;0.20;;;36.00;58.30;;;;;;4424153;32;20056;-64
2022/07/25 11:46:08;;;;;;;0.30;0.30;;;36.40;58.10;;;;;;4441780;32;20421;-64
2022/07/25 11:48:37;;;;;;;0.50;0.50;;;36.80;57.50;;;;;;4445331;32;20065;-64
2022/07/25 11:51:13;;;;;;;0.60;0.60;;;36.80;57.80;;;;;;4425240;32;20564;-64
2022/07/25 11:53:41;;;;;;;0.30;0.30;;;36.70;57.20;;;;;;4409762;32;20081;-64
2022/07/25 11:56:17;;;;;;;0.50;0.50;;;36.80;57.50;;;;;;4423895;32;20163;-64
2022/07/25 11:58:49;;;;;;;0.60;0.60;;;37.00;56.90;;;;;;4423561;32;20501;-64
2022/07/25 12:01:15;;;;;;;0.28;0.28;;;36.70;58.00;;;;;;4410754;32;20089;-64
2022/07/25 12:03:41;;;;;;;1.17;0.70;;;36.50;57.20;;;;;;4404172;32;20086;-64
2022/07/25 12:06:10;;;;;;;0.35;0.35;;;36.50;57.40;;;;;;4415527;32;20061;-64
2022/07/25 12:08:39;;;;;;;1.87;0.50;;;36.70;57.40;;;;;;4431603;32;20064;-64
2022/07/25 12:11:16;;;;;;;0.30;0.30;;;37.50;56.40;;;;;;4445988;32;20430;-65
2022/07/25 12:13:41;;;;;;;0.20;0.20;;;38.00;55.80;;;;;;4435020;32;20069;-64
2022/07/25 12:16:07;;;;;;;0.35;0.35;;;38.20;55.50;;;;;;4408705;32;20426;-64
2022/07/25 12:18:32;;;;;;;0.20;0.20;;;38.30;53.00;;;;;;4431237;32;20072;-64
2022/07/25 12:20:58;;;;;;;0.80;0.55;;;38.40;53.80;;;;;;4425504;32;20163;-64
2022/07/25 12:23:23;;;;;;;0.90;0.40;;;38.10;54.10;;;;;;4407157;32;20158;-63
2022/07/25 12:25:49;;;;;;;1.37;0.57;;;38.30;54.40;;;;;;4422981;32;20058;-62
2022/07/25 12:28:15;;;;;;;0.30;0.28;;;38.80;53.70;;;;;;4415895;32;20090;-65
2022/07/25 12:30:43;;;;;;;0.93;0.68;;;39.30;53.30;;;;;;4427218;32;20537;-62
2022/07/25 12:33:10;;;;;;;0.50;0.50;;;39.60;52.50;;;;;;4417320;32;20553;-62
2022/07/25 12:35:36;;;;;;;0.20;0.20;;;39.20;52.30;;;;;;4423843;32;20065;-62
2022/07/25 12:38:01;;;;;;;0.93;0.45;;;38.60;52.00;;;;;;4429652;32;20065;-64
2022/07/25 12:40:27;;;;;;;0.88;0.68;;;38.10;52.70;;;;;;4430209;32;20073;-64
2022/07/25 12:42:53;;;;;;;1.67;1.05;;;37.50;54.20;;;;;;4408349;32;20216;-64
2022/07/25 12:45:18;;;;;;;1.70;0.40;;;37.80;54.10;;;;;;4428855;32;20061;-64